Terminal Aerodrome Forecast
Issued by NWS

Home | Current Version | Previous Version | Text Only | Print | Product List | Glossary On
Versions: 1 2 3 4 5 6 7 8 9 10 11 12 13 14 15 16 17 18
000
FTUS43 KAPX 240500
TAFPLN
TAF
KPLN 240520Z 2406/2506 00000KT P6SM BKN025 OVC080
     FM240800 00000KT 6SM -DZ BR SCT006 OVC012
     FM241500 24005KT P6SM OVC015
     FM241900 24005KT P6SM BKN025
     FM242100 25005KT P6SM SCT030
     FM250000 00000KT P6SM SCT120=

USA.gov is the U.S. government's official web portal to all federal, state and local government web resources and services.